Time;durP1;ratioP1;P1;durP2;ratioP2;P2;SDS_P1;SDS_P2;PMS_P1;PMS_P2;Temp;Humidity;BMP_temperature;BMP_pressure;BME280_temperature;BME280_humidity;BME280_pressure;Samples;Min_cycle;Max_cycle;Signal;HPM_P1;HPM_P2
2022/01/20 00:01:02;;;;;;;;;238.50;216.00;4.60;59.30;;;;;;5074415;28;8745;-70
2022/01/20 00:03:21;;;;;;;;;263.25;238.75;4.60;59.30;;;;;;5074002;28;8820;-69
2022/01/20 00:27:31;;;;;;;;;227.75;206.25;3.30;64.90;;;;;;5078107;28;8867;-69
2022/01/20 00:33:02;;;;;;;;;224.25;203.50;3.40;64.60;;;;;;5077842;28;8748;-68
2022/01/20 00:37:14;;;;;;;;;218.75;195.50;3.10;65.80;;;;;;5077877;28;8794;-70
2022/01/20 00:38:17;;;;;;;;;211.25;185.75;3.20;65.30;;;;;;5077787;28;8823;-70
2022/01/20 00:40:43;;;;;;;;;194.25;178.75;3.00;67.00;;;;;;5077753;28;8752;-68
2022/01/20 00:43:09;;;;;;;;;207.25;190.00;2.90;67.70;;;;;;5077706;28;8773;-68
2022/01/20 00:45:34;;;;;;;;;220.00;193.00;2.90;68.30;;;;;;5077663;28;8863;-68
2022/01/20 00:48:00;;;;;;;;;217.25;200.00;3.00;67.80;;;;;;5077577;28;8788;-70
2022/01/20 00:50:26;;;;;;;;;231.00;214.75;2.80;69.10;;;;;;5077570;28;8757;-69
2022/01/20 00:52:52;;;;;;;;;235.25;218.50;2.90;68.20;;;;;;5077472;28;8772;-69
2022/01/20 00:55:18;;;;;;;;;261.00;235.25;2.90;67.40;;;;;;5077468;28;8768;-69
2022/01/20 00:57:44;;;;;;;;;296.25;256.25;2.60;68.40;;;;;;5077316;28;8796;-68
2022/01/20 01:00:12;;;;;;;;;234.25;226.00;2.60;69.10;;;;;;5077614;28;8764;-70
2022/01/20 01:02:37;;;;;;;;;257.25;231.75;2.70;68.40;;;;;;5077475;28;8768;-69
2022/01/20 01:05:05;;;;;;;;;262.50;238.25;3.00;66.70;;;;;;5077340;28;8938;-69
2022/01/20 01:07:48;;;;;;;;;234.75;215.75;3.00;66.40;;;;;;5077203;28;8792;-69
2022/01/20 01:10:21;;;;;;;;;258.25;234.25;3.00;66.70;;;;;;5077516;28;8903;-68
2022/01/20 01:12:57;;;;;;;;;256.00;225.75;3.00;65.70;;;;;;5077059;28;8804;-69
2022/01/20 01:15:32;;;;;;;;;221.00;203.50;3.00;66.20;;;;;;5077361;28;8811;-69
2022/01/20 01:23:33;;;;;;;;;264.50;227.00;2.80;66.90;;;;;;5077287;28;8756;-68
2022/01/20 01:26:00;;;;;;;;;265.75;230.00;2.50;68.70;;;;;;5076371;28;8748;-69
2022/01/20 01:28:29;;;;;;;;;231.50;203.00;2.50;68.40;;;;;;5076893;28;8818;-70
2022/01/20 01:33:22;;;;;;;;;236.00;217.00;2.40;67.80;;;;;;5076515;28;8885;-68
2022/01/20 01:35:55;;;;;;;;;219.25;209.25;2.30;68.00;;;;;;5076263;28;8780;-69
2022/01/20 01:38:55;;;;;;;;;224.50;191.00;2.70;66.40;;;;;;5076874;28;8807;-69
2022/01/20 01:41:17;;;;;;;;;195.25;179.00;3.00;64.50;;;;;;5074329;28;8853;-69
2022/01/20 01:43:47;;;;;;;;;163.50;151.00;3.40;63.10;;;;;;5075623;28;8810;-69
2022/01/20 01:46:14;;;;;;;;;186.50;171.75;3.40;62.40;;;;;;5076842;28;8783;-68
2022/01/20 01:48:42;;;;;;;;;176.75;160.25;3.20;63.10;;;;;;5076825;28;9370;-68
2022/01/20 01:51:11;;;;;;;;;172.75;154.75;3.40;62.40;;;;;;5076494;28;8774;-68
2022/01/20 01:53:39;;;;;;;;;200.50;182.75;3.30;62.10;;;;;;5075330;28;8874;-68
2022/01/20 01:56:05;;;;;;;;;204.00;199.00;3.10;62.90;;;;;;5076635;28;8768;-70
2022/01/20 01:58:32;;;;;;;;;191.00;173.50;2.90;64.10;;;;;;5076611;28;8800;-68
2022/01/20 02:00:58;;;;;;;;;237.25;212.25;2.70;64.70;;;;;;5076557;28;8744;-68
2022/01/20 02:03:24;;;;;;;;;206.50;192.75;2.40;66.40;;;;;;5067024;28;8830;-68
2022/01/20 02:06:07;;;;;;;;;224.75;202.00;2.20;68.40;;;;;;5073142;28;8788;-68
2022/01/20 02:19:14;;;;;;;;;238.00;218.00;2.20;67.20;;;;;;5056021;28;8755;-68
2022/01/20 02:22:06;;;;;;;;;222.75;201.00;2.00;67.90;;;;;;5062193;28;8785;-68
2022/01/20 02:24:32;;;;;;;;;250.75;224.25;2.10;67.80;;;;;;5065293;28;8779;-69
2022/01/20 02:26:58;;;;;;;;;221.75;207.00;1.90;68.60;;;;;;5055801;28;8756;-69
2022/01/20 02:29:24;;;;;;;;;196.25;182.75;1.80;70.20;;;;;;5055691;28;8816;-68
2022/01/20 02:31:55;;;;;;;;;228.50;202.00;1.70;71.30;;;;;;5069448;28;8907;-68
2022/01/20 02:34:21;;;;;;;;;173.50;160.00;1.80;70.20;;;;;;5075946;28;8839;-68
2022/01/20 02:36:48;;;;;;;;;162.50;147.50;1.70;70.20;;;;;;5074845;28;8820;-68
2022/01/20 02:39:32;;;;;;;;;178.25;165.00;1.70;69.90;;;;;;5075558;28;8870;-68
2022/01/20 02:44:53;;;;;;;;;170.50;156.25;2.70;65.20;;;;;;5075533;28;8840;-68
2022/01/20 02:47:27;;;;;;;;;156.75;143.75;2.70;63.90;;;;;;5075944;28;8756;-69
2022/01/20 02:49:53;;;;;;;;;147.00;132.00;2.50;64.70;;;;;;5075423;28;8769;-69
2022/01/20 02:52:20;;;;;;;;;140.75;136.00;2.60;64.80;;;;;;5075411;28;8822;-69
2022/01/20 02:54:46;;;;;;;;;114.25;105.00;2.50;64.90;;;;;;5075111;28;8758;-69
2022/01/20 02:57:12;;;;;;;;;115.00;103.75;2.30;66.00;;;;;;5075118;28;8919;-69
2022/01/20 02:59:38;;;;;;;;;125.75;108.00;2.40;65.50;;;;;;5075153;28;8921;-68
2022/01/20 03:02:06;;;;;;;;;135.25;118.50;2.60;64.70;;;;;;5075179;28;8776;-68
2022/01/20 03:04:32;;;;;;;;;126.50;113.00;2.80;63.70;;;;;;5075360;28;8819;-69
2022/01/20 03:06:59;;;;;;;;;142.50;129.50;2.60;63.60;;;;;;5075039;28;8769;-69
2022/01/20 03:09:25;;;;;;;;;148.00;133.75;2.20;65.30;;;;;;5075041;28;8776;-69
2022/01/20 03:11:51;;;;;;;;;164.75;151.75;2.30;65.50;;;;;;5074701;28;8804;-68
2022/01/20 03:14:17;;;;;;;;;228.25;199.50;2.10;66.50;;;;;;5075046;28;8841;-68
2022/01/20 03:16:48;;;;;;;;;254.25;226.50;2.30;65.90;;;;;;5074720;28;8896;-68
2022/01/20 03:19:14;;;;;;;;;237.00;213.50;1.90;67.20;;;;;;5074769;28;8823;-68
2022/01/20 03:21:41;;;;;;;;;310.50;280.75;1.40;71.40;;;;;;5074666;28;8852;-68
2022/01/20 03:24:08;;;;;;;;;330.50;298.75;1.40;72.10;;;;;;5074687;28;8881;-68
2022/01/20 03:26:34;;;;;;;;;330.50;298.00;1.60;70.70;;;;;;5074717;28;8772;-68
2022/01/20 03:29:01;;;;;;;;;324.50;293.50;1.80;68.70;;;;;;5074893;28;9504;-71
2022/01/20 03:31:27;;;;;;;;;330.50;294.00;1.70;68.60;;;;;;5074954;28;8883;-69
2022/01/20 03:33:53;;;;;;;;;335.00;304.50;1.60;69.40;;;;;;5073568;28;8796;-69
2022/01/20 03:36:20;;;;;;;;;294.50;266.25;1.60;69.70;;;;;;5074462;28;8780;-70
2022/01/20 03:38:46;;;;;;;;;287.25;264.75;2.10;67.30;;;;;;5074673;28;9430;-69
2022/01/20 03:41:12;;;;;;;;;277.75;257.25;2.20;65.90;;;;;;5074520;28;8803;-69
2022/01/20 03:43:38;;;;;;;;;259.50;236.00;1.70;67.90;;;;;;5074501;28;9399;-69
2022/01/20 03:46:09;;;;;;;;;264.50;248.25;1.70;68.60;;;;;;5074456;28;9464;-69
2022/01/20 03:48:38;;;;;;;;;262.25;228.00;1.70;67.90;;;;;;5074145;28;8791;-69
2022/01/20 03:51:05;;;;;;;;;240.25;210.25;2.00;66.50;;;;;;5074371;28;8768;-68
2022/01/20 03:53:36;;;;;;;;;227.75;200.75;2.10;65.90;;;;;;5074339;28;8782;-69
2022/01/20 03:56:03;;;;;;;;;181.25;161.50;2.20;65.60;;;;;;5074374;28;8768;-68
2022/01/20 03:58:29;;;;;;;;;198.75;182.00;2.00;65.80;;;;;;5074209;28;8800;-70
2022/01/20 04:00:55;;;;;;;;;188.50;167.25;2.10;65.20;;;;;;5073257;28;8768;-69
2022/01/20 04:03:21;;;;;;;;;196.75;175.25;2.30;64.30;;;;;;5074267;28;8855;-70
2022/01/20 04:08:16;;;;;;;;;171.75;167.75;2.60;63.20;;;;;;5074482;28;8792;-70
2022/01/20 04:10:42;;;;;;;;;210.50;188.50;2.50;62.90;;;;;;5074428;28;8771;-71
2022/01/20 04:13:09;;;;;;;;;203.25;186.75;2.30;64.00;;;;;;5074067;28;8885;-70
2022/01/20 04:15:38;;;;;;;;;223.00;198.00;2.40;63.70;;;;;;5073105;28;8919;-70
2022/01/20 04:18:09;;;;;;;;;271.00;250.75;2.30;63.40;;;;;;5074140;28;8796;-70
2022/01/20 04:20:34;;;;;;;;;265.75;235.00;1.90;65.70;;;;;;5074169;28;8757;-70
2022/01/20 04:23:01;;;;;;;;;264.75;232.50;1.70;66.60;;;;;;5074083;28;8810;-70
2022/01/20 04:25:26;;;;;;;;;253.75;228.25;1.80;66.70;;;;;;5074049;28;8764;-70
2022/01/20 04:27:52;;;;;;;;;259.75;236.25;1.80;66.50;;;;;;5072987;28;8768;-70
2022/01/20 04:30:18;;;;;;;;;220.00;194.25;1.60;68.00;;;;;;5074293;28;8837;-70
2022/01/20 04:32:44;;;;;;;;;222.75;202.00;1.30;70.00;;;;;;5074146;28;8768;-70
2022/01/20 04:35:10;;;;;;;;;205.75;177.00;1.60;68.80;;;;;;5074216;28;8764;-70
2022/01/20 04:37:36;;;;;;;;;186.00;171.25;1.30;69.80;;;;;;5072816;28;8870;-70
2022/01/20 04:40:03;;;;;;;;;184.25;172.25;1.00;72.60;;;;;;5073877;28;8823;-69
2022/01/20 04:42:32;;;;;;;;;182.00;163.00;1.20;70.10;;;;;;5074164;28;8799;-70
2022/01/20 04:45:03;;;;;;;;;193.75;176.75;1.30;69.30;;;;;;5074132;28;8760;-70
2022/01/20 04:47:42;;;;;;;;;214.75;191.50;1.70;67.70;;;;;;5074146;28;8772;-70
2022/01/20 04:58:20;;;;;;;;;163.25;149.00;1.50;67.60;;;;;;5073797;28;8788;-70
2022/01/20 05:00:46;;;;;;;;;169.00;156.00;1.40;67.60;;;;;;5075537;28;8853;-70
2022/01/20 05:03:12;;;;;;;;;167.75;149.75;1.60;66.50;;;;;;5077360;28;8859;-70
2022/01/20 05:05:38;;;;;;;;;148.00;132.50;1.60;66.30;;;;;;5077273;28;8771;-70
2022/01/20 05:08:04;;;;;;;;;149.00;135.00;1.40;66.90;;;;;;5077242;28;8764;-70
2022/01/20 05:10:32;;;;;;;;;177.00;168.25;1.50;66.70;;;;;;5077195;28;8772;-70
2022/01/20 05:15:25;;;;;;;;;198.50;186.25;1.40;67.10;;;;;;5077527;28;8782;-70
2022/01/20 05:17:55;;;;;;;;;228.75;199.75;1.60;66.50;;;;;;5077091;28;8824;-70
2022/01/20 05:20:21;;;;;;;;;196.00;170.75;1.80;65.30;;;;;;5077037;28;8806;-70
2022/01/20 05:22:47;;;;;;;;;155.25;139.00;2.00;64.30;;;;;;5077022;28;8757;-70
2022/01/20 05:25:13;;;;;;;;;173.50;152.00;2.10;63.70;;;;;;5076908;28;8752;-70
2022/01/20 05:27:39;;;;;;;;;159.50;141.25;2.10;63.60;;;;;;5076988;28;8761;-70
2022/01/20 05:30:05;;;;;;;;;151.50;138.00;2.10;63.20;;;;;;5076869;28;8865;-70
2022/01/20 05:32:31;;;;;;;;;127.50;117.25;2.20;62.90;;;;;;5077385;28;8777;-70
2022/01/20 05:34:57;;;;;;;;;167.50;153.50;2.30;62.50;;;;;;5077231;28;8812;-70
2022/01/20 05:37:23;;;;;;;;;163.00;153.50;2.20;62.60;;;;;;5076717;28;8896;-70
2022/01/20 05:39:48;;;;;;;;;160.25;144.00;1.80;64.80;;;;;;5076679;28;8749;-70
2022/01/20 05:42:14;;;;;;;;;197.50;179.00;1.00;69.10;;;;;;5076870;28;8748;-70
2022/01/20 05:44:40;;;;;;;;;203.00;188.25;0.70;71.80;;;;;;5076746;28;8847;-70
2022/01/20 05:47:10;;;;;;;;;159.50;147.50;0.70;71.40;;;;;;5076555;28;8780;-70
2022/01/20 05:49:36;;;;;;;;;165.50;152.50;0.60;72.60;;;;;;5075716;28;8752;-70
2022/01/20 05:52:03;;;;;;;;;182.75;168.50;1.00;70.90;;;;;;5076533;28;8872;-70
2022/01/20 05:54:29;;;;;;;;;205.50;181.75;1.00;69.80;;;;;;5076377;28;8768;-71
2022/01/20 05:56:55;;;;;;;;;193.50;178.50;1.00;70.30;;;;;;5076247;28;8800;-71
2022/01/20 05:59:21;;;;;;;;;169.25;152.00;1.10;69.80;;;;;;5076654;28;8849;-70
2022/01/20 06:01:53;;;;;;;;;150.50;140.50;1.10;69.30;;;;;;5076486;28;8764;-69
2022/01/20 06:04:19;;;;;;;;;170.50;150.25;1.30;68.20;;;;;;5076502;28;8796;-68
2022/01/20 06:06:45;;;;;;;;;149.00;134.75;1.60;67.00;;;;;;5076197;28;8753;-68
2022/01/20 06:09:11;;;;;;;;;173.75;159.25;1.90;65.70;;;;;;5076221;28;8794;-69
2022/01/20 06:11:37;;;;;;;;;187.75;169.50;1.80;65.00;;;;;;5075828;28;8814;-68
2022/01/20 06:14:04;;;;;;;;;208.25;176.00;1.60;66.60;;;;;;5076122;28;8768;-69
2022/01/20 06:16:30;;;;;;;;;217.00;185.00;1.50;67.00;;;;;;5076148;28;8772;-68
2022/01/20 06:18:56;;;;;;;;;205.75;187.25;1.30;68.60;;;;;;5076206;28;9531;-69
2022/01/20 06:21:22;;;;;;;;;214.50;194.25;1.20;69.40;;;;;;5076096;28;8768;-68
2022/01/20 06:23:48;;;;;;;;;241.25;215.75;1.20;69.50;;;;;;5075863;28;8771;-68
2022/01/20 06:26:14;;;;;;;;;240.75;212.75;1.50;68.10;;;;;;5075750;28;8788;-69
2022/01/20 06:28:40;;;;;;;;;243.50;217.75;1.90;65.90;;;;;;5075706;28;8826;-68
2022/01/20 06:31:06;;;;;;;;;263.50;237.75;1.90;65.60;;;;;;5075658;28;8784;-68
2022/01/20 06:33:32;;;;;;;;;245.50;221.25;1.90;65.20;;;;;;5075778;28;8800;-68
2022/01/20 06:35:59;;;;;;;;;268.50;240.00;2.10;64.90;;;;;;5075912;28;8863;-69
2022/01/20 06:38:25;;;;;;;;;285.25;255.00;1.90;65.20;;;;;;5075471;28;8800;-68
2022/01/20 06:40:51;;;;;;;;;285.75;254.50;1.90;65.80;;;;;;5075539;28;8756;-68
2022/01/20 06:43:17;;;;;;;;;316.75;280.50;2.10;65.10;;;;;;5075414;28;8846;-68
2022/01/20 06:45:43;;;;;;;;;404.00;363.50;2.50;63.50;;;;;;5075136;28;9466;-67
2022/01/20 06:48:09;;;;;;;;;463.50;410.00;2.60;63.10;;;;;;5075587;28;8791;-68
2022/01/20 06:50:35;;;;;;;;;429.50;382.75;2.70;63.10;;;;;;5075249;28;8755;-68
2022/01/20 06:53:01;;;;;;;;;426.75;371.75;2.70;62.40;;;;;;5075184;28;8784;-67
2022/01/20 06:55:27;;;;;;;;;324.00;293.50;2.70;62.70;;;;;;5074950;28;8776;-67
2022/01/20 06:57:52;;;;;;;;;231.50;212.50;2.50;64.10;;;;;;5075214;28;8805;-67
2022/01/20 07:00:22;;;;;;;;;211.50;181.00;2.50;64.30;;;;;;5075273;28;8756;-67
2022/01/20 07:02:49;;;;;;;;;215.50;198.00;2.50;64.20;;;;;;5074806;28;8757;-67
2022/01/20 07:05:17;;;;;;;;;196.75;178.75;2.60;64.30;;;;;;5074917;28;8768;-67
2022/01/20 07:07:43;;;;;;;;;149.00;130.75;2.90;63.30;;;;;;5075106;28;8799;-67
2022/01/20 07:10:11;;;;;;;;;170.75;153.25;3.00;62.30;;;;;;5075270;28;8752;-68
2022/01/20 07:12:38;;;;;;;;;132.25;118.75;3.20;61.60;;;;;;5073177;28;8796;-68
2022/01/20 07:15:05;;;;;;;;;127.25;116.25;3.20;61.40;;;;;;5074835;28;8779;-67
2022/01/20 07:17:30;;;;;;;;;123.00;110.50;2.90;62.70;;;;;;5075046;28;8788;-68
2022/01/20 07:19:56;;;;;;;;;121.75;112.00;3.10;62.10;;;;;;5074835;28;8772;-67
2022/01/20 07:22:22;;;;;;;;;169.00;154.25;3.10;62.00;;;;;;5074545;28;8776;-68
2022/01/20 07:24:49;;;;;;;;;258.75;228.75;3.40;61.30;;;;;;5074428;28;9616;-66
2022/01/20 07:27:16;;;;;;;;;400.25;352.50;3.70;59.80;;;;;;5074675;28;8883;-67
2022/01/20 07:29:41;;;;;;;;;402.50;347.75;3.80;59.80;;;;;;5074665;28;8792;-68
2022/01/20 07:32:08;;;;;;;;;327.75;293.25;4.00;59.60;;;;;;5074919;28;8764;-69
2022/01/20 07:34:34;;;;;;;;;306.75;270.50;4.00;59.00;;;;;;5074486;28;8800;-67
2022/01/20 07:37:00;;;;;;;;;279.25;253.75;4.10;59.20;;;;;;5074331;28;8887;-65
2022/01/20 07:39:26;;;;;;;;;272.75;251.00;4.10;59.50;;;;;;5074533;28;8749;-66
2022/01/20 07:41:52;;;;;;;;;211.50;194.25;4.00;60.30;;;;;;5074533;28;8768;-67
2022/01/20 07:44:19;;;;;;;;;193.50;171.50;3.80;60.80;;;;;;5074696;28;8887;-68
2022/01/20 07:46:46;;;;;;;;;191.50;170.50;3.70;61.20;;;;;;5074687;28;8793;-67
2022/01/20 07:49:12;;;;;;;;;164.25;149.75;4.00;60.80;;;;;;5074442;28;8848;-67
2022/01/20 07:51:38;;;;;;;;;175.00;161.25;4.20;60.20;;;;;;5074490;28;8753;-67
2022/01/20 07:54:04;;;;;;;;;188.75;172.75;4.50;59.20;;;;;;5074143;28;8837;-67
2022/01/20 07:56:30;;;;;;;;;189.25;169.00;4.40;59.30;;;;;;5074136;28;8884;-67
2022/01/20 07:58:56;;;;;;;;;196.50;176.50;4.60;58.70;;;;;;5074148;28;8894;-67
2022/01/20 08:01:24;;;;;;;;;193.75;175.50;4.40;59.10;;;;;;5074420;28;8780;-67
2022/01/20 08:03:52;;;;;;;;;182.00;164.75;4.70;58.50;;;;;;5074246;28;8953;-67
2022/01/20 08:06:18;;;;;;;;;178.50;156.25;4.50;58.70;;;;;;5074230;28;8780;-68
2022/01/20 08:08:44;;;;;;;;;163.75;146.75;4.50;58.50;;;;;;5061779;28;8779;-67
2022/01/20 08:11:10;;;;;;;;;198.00;166.50;4.80;57.30;;;;;;5060878;28;8768;-67
2022/01/20 08:13:35;;;;;;;;;180.25;170.75;5.00;56.20;;;;;;5067516;28;9427;-69
2022/01/20 08:16:01;;;;;;;;;191.00;175.00;5.20;55.50;;;;;;5070317;28;8792;-69
2022/01/20 08:18:27;;;;;;;;;198.75;185.75;5.30;55.10;;;;;;5072930;28;8797;-70
2022/01/20 08:20:53;;;;;;;;;194.00;179.25;5.40;54.50;;;;;;5072828;28;9312;-69
2022/01/20 08:23:18;;;;;;;;;229.25;202.25;5.40;54.20;;;;;;5067594;28;8783;-69
2022/01/20 08:25:44;;;;;;;;;207.25;186.00;5.50;54.10;;;;;;5072633;28;8849;-70
2022/01/20 08:28:11;;;;;;;;;230.25;212.50;5.70;53.80;;;;;;5073656;28;8776;-66
2022/01/20 08:30:38;;;;;;;;;233.75;214.25;6.00;53.20;;;;;;5073918;28;8760;-67
2022/01/20 08:33:03;;;;;;;;;240.50;214.75;6.40;52.00;;;;;;5074171;28;8804;-67
2022/01/20 08:35:32;;;;;;;;;244.00;218.50;6.60;51.60;;;;;;5075663;28;8871;-66
2022/01/20 08:37:59;;;;;;;;;257.25;238.00;6.70;51.10;;;;;;5078024;28;9442;-76
2022/01/20 08:40:26;;;;;;;;;255.25;243.00;6.90;50.80;;;;;;5073659;28;8818;-69
2022/01/20 08:42:53;;;;;;;;;284.75;263.25;7.10;50.90;;;;;;5076338;28;8804;-70
2022/01/20 08:45:23;;;;;;;;;298.25;267.25;7.40;50.60;;;;;;5076964;28;8786;-72
2022/01/20 08:47:54;;;;;;;;;282.25;255.00;7.70;51.00;;;;;;5077620;28;8768;-72
2022/01/20 08:50:21;;;;;;;;;308.75;283.00;7.80;50.60;;;;;;5077551;28;8765;-70
2022/01/20 08:52:47;;;;;;;;;275.00;252.00;8.10;50.60;;;;;;5077728;28;8757;-72
2022/01/20 08:55:14;;;;;;;;;289.25;256.25;8.20;50.50;;;;;;5077362;28;8757;-73
2022/01/20 08:57:40;;;;;;;;;299.75;270.75;8.50;50.10;;;;;;5075136;28;8850;-70
2022/01/20 09:00:08;;;;;;;;;285.50;260.50;8.50;50.00;;;;;;5072489;28;8760;-80
2022/01/20 09:02:34;;;;;;;;;269.25;243.50;8.60;49.60;;;;;;5076006;28;8749;-76
2022/01/20 09:05:01;;;;;;;;;279.25;253.00;8.70;49.00;;;;;;5076314;28;8807;-77
2022/01/20 09:07:27;;;;;;;;;292.25;268.25;8.90;48.70;;;;;;5075649;28;8777;-77
2022/01/20 09:09:55;;;;;;;;;292.00;272.00;8.90;48.40;;;;;;5075705;28;8753;-80
2022/01/20 09:17:47;;;;;;;;;299.75;275.25;9.30;48.30;;;;;;5075030;28;8800;-78
2022/01/20 09:20:13;;;;;;;;;288.50;262.00;9.40;47.80;;;;;;5070015;28;9435;-72
2022/01/20 09:22:39;;;;;;;;;282.50;254.00;9.60;47.70;;;;;;5075059;28;8772;-76
2022/01/20 09:25:06;;;;;;;;;301.25;272.50;9.50;47.90;;;;;;5075801;28;8773;-78
2022/01/20 09:27:33;;;;;;;;;292.00;264.50;9.60;48.20;;;;;;5074563;28;8760;-77
2022/01/20 09:30:01;;;;;;;;;328.75;304.75;9.80;47.80;;;;;;5066832;28;9477;-78
2022/01/20 09:32:29;;;;;;;;;329.75;302.75;9.70;48.20;;;;;;5075675;28;8796;-77
2022/01/20 09:34:56;;;;;;;;;316.50;290.00;9.90;47.80;;;;;;5070639;28;8804;-78
2022/01/20 09:37:23;;;;;;;;;325.50;299.25;10.00;47.60;;;;;;5061946;28;8965;-77
2022/01/20 09:39:49;;;;;;;;;326.75;295.25;10.10;47.70;;;;;;5067655;28;8814;-78
2022/01/20 09:42:16;;;;;;;;;302.00;275.00;10.20;47.10;;;;;;5065456;28;8886;-79
2022/01/20 09:44:47;;;;;;;;;314.00;286.25;10.20;46.90;;;;;;5056389;28;8759;-78
2022/01/20 09:47:15;;;;;;;;;299.25;275.50;10.30;47.50;;;;;;5055864;28;8805;-78
2022/01/20 09:49:42;;;;;;;;;251.50;225.25;10.60;46.70;;;;;;5056369;28;8913;-73
2022/01/20 09:52:08;;;;;;;;;209.25;192.25;10.80;45.30;;;;;;5066970;28;8818;-76
2022/01/20 09:54:34;;;;;;;;;190.50;172.75;10.80;44.90;;;;;;5073159;28;8789;-76
2022/01/20 09:57:00;;;;;;;;;184.00;176.25;10.90;44.50;;;;;;5070899;28;8804;-75
2022/01/20 09:59:27;;;;;;;;;186.00;177.50;11.30;44.00;;;;;;5075018;28;8780;-75
2022/01/20 10:01:58;;;;;;;;;165.50;155.75;11.60;43.70;;;;;;5073593;28;8773;-76
2022/01/20 10:04:30;;;;;;;;;166.25;146.25;12.00;42.70;;;;;;5074981;28;8866;-76
2022/01/20 10:06:56;;;;;;;;;130.00;124.50;12.30;42.20;;;;;;5072693;28;8787;-71
2022/01/20 10:09:34;;;;;;;;;132.75;123.75;12.20;41.70;;;;;;5076056;28;9414;-81
2022/01/20 10:12:00;;;;;;;;;144.00;131.50;12.20;41.50;;;;;;5076120;28;8781;-76
2022/01/20 10:14:25;;;;;;;;;169.50;152.25;12.40;41.20;;;;;;5075668;28;8795;-77
2022/01/20 10:16:52;;;;;;;;;196.75;179.25;12.70;41.20;;;;;;5074479;28;8832;-77
2022/01/20 10:19:27;;;;;;;;;330.50;298.75;13.00;40.90;;;;;;5074623;28;8945;-76
2022/01/20 10:21:53;;;;;;;;;367.25;328.50;13.10;42.10;;;;;;5075625;28;8772;-80
2022/01/20 10:24:19;;;;;;;;;326.75;297.00;13.40;42.60;;;;;;5074717;28;9495;-78
2022/01/20 10:26:51;;;;;;;;;305.00;281.75;13.90;43.20;;;;;;5075739;28;8853;-80
2022/01/20 10:29:17;;;;;;;;;290.25;261.50;13.50;42.70;;;;;;5075864;28;8853;-79
2022/01/20 10:31:46;;;;;;;;;274.75;249.50;13.20;43.20;;;;;;5075503;28;8764;-78
2022/01/20 10:34:18;;;;;;;;;263.25;242.75;12.80;44.10;;;;;;5075716;28;8901;-84
2022/01/20 10:36:51;;;;;;;;;235.75;220.50;12.80;45.60;;;;;;5074452;28;8764;-79
2022/01/20 10:39:17;;;;;;;;;252.75;227.75;12.80;45.00;;;;;;5066918;28;8782;-79
2022/01/20 10:41:43;;;;;;;;;264.50;247.75;13.30;45.20;;;;;;5055288;28;9465;-74
2022/01/20 10:44:16;;;;;;;;;291.25;261.75;13.50;44.30;;;;;;5055627;28;8767;-71
2022/01/20 10:47:03;;;;;;;;;290.25;262.00;13.10;45.00;;;;;;5055182;28;8763;-72
2022/01/20 10:49:32;;;;;;;;;294.50;268.00;12.50;46.50;;;;;;5065239;28;8761;-69
2022/01/20 10:52:04;;;;;;;;;298.25;267.25;12.30;47.20;;;;;;5066649;28;8772;-67
2022/01/20 10:54:52;;;;;;;;;300.75;261.00;12.10;48.20;;;;;;5070631;28;8741;-68
2022/01/20 10:57:30;;;;;;;;;332.75;299.75;12.10;47.80;;;;;;5072246;28;8795;-68
2022/01/20 11:00:04;;;;;;;;;299.75;275.00;12.20;48.00;;;;;;5064240;28;8877;-70
2022/01/20 11:02:31;;;;;;;;;280.25;257.50;12.30;48.10;;;;;;5075100;28;8732;-68
2022/01/20 11:04:58;;;;;;;;;262.50;244.25;12.40;47.40;;;;;;5066732;28;8956;-69
2022/01/20 11:07:24;;;;;;;;;271.25;253.50;12.40;46.70;;;;;;5065391;28;8780;-71
2022/01/20 11:10:11;;;;;;;;;312.50;281.50;12.10;47.80;;;;;;5062455;28;8788;-72
2022/01/20 11:12:37;;;;;;;;;265.25;250.25;12.00;47.80;;;;;;5062325;28;8827;-68
2022/01/20 11:15:08;;;;;;;;;223.75;206.00;11.70;48.80;;;;;;5059605;28;8786;-71
2022/01/20 11:17:35;;;;;;;;;222.00;209.25;11.40;49.40;;;;;;5070753;28;8788;-71
2022/01/20 11:20:09;;;;;;;;;232.00;213.25;11.40;49.60;;;;;;5073624;28;8857;-76
2022/01/20 11:22:36;;;;;;;;;226.75;205.75;11.40;49.50;;;;;;5069213;28;8871;-75
2022/01/20 11:25:09;;;;;;;;;215.75;194.75;11.20;49.40;;;;;;5068451;28;8908;-72
2022/01/20 11:27:41;;;;;;;;;196.75;175.50;11.40;48.90;;;;;;5067385;28;8791;-70
2022/01/20 11:30:18;;;;;;;;;187.50;170.75;11.30;48.80;;;;;;5066899;28;8767;-67
2022/01/20 11:32:58;;;;;;;;;204.25;190.50;11.00;49.80;;;;;;5064435;28;8842;-76
2022/01/20 11:35:37;;;;;;;;;177.75;172.50;11.00;49.80;;;;;;5066525;28;8779;-75
2022/01/20 11:38:03;;;;;;;;;199.50;187.50;10.90;50.70;;;;;;5063789;28;8824;-74
2022/01/20 11:40:29;;;;;;;;;192.50;178.00;10.70;52.60;;;;;;5067266;28;8794;-76
2022/01/20 11:43:03;;;;;;;;;190.75;174.25;10.40;52.90;;;;;;5065876;28;9529;-75
2022/01/20 11:45:32;;;;;;;;;166.00;158.75;10.70;52.00;;;;;;5066500;28;8780;-76
2022/01/20 11:48:10;;;;;;;;;177.75;162.75;10.90;51.80;;;;;;5069163;28;8834;-76
2022/01/20 11:50:35;;;;;;;;;162.75;150.50;10.50;53.10;;;;;;5066206;28;9634;-75
2022/01/20 11:53:15;;;;;;;;;133.75;118.50;9.20;56.20;;;;;;5070210;28;8803;-75
2022/01/20 11:55:51;;;;;;;;;141.25;135.50;9.10;56.60;;;;;;5065638;28;8797;-69
2022/01/20 11:58:20;;;;;;;;;135.25;127.25;9.70;54.80;;;;;;5062706;28;8822;-73
2022/01/20 12:01:07;;;;;;;;;129.50;120.50;9.70;55.50;;;;;;5059340;28;8779;-74
2022/01/20 12:03:35;;;;;;;;;137.50;130.75;10.10;54.70;;;;;;5058911;28;8788;-72
2022/01/20 12:06:12;;;;;;;;;142.00;132.50;9.50;56.50;;;;;;5064022;28;9397;-73
2022/01/20 12:08:50;;;;;;;;;127.50;121.25;9.40;57.40;;;;;;5064631;28;8761;-77
2022/01/20 12:11:17;;;;;;;;;146.00;135.75;9.70;56.20;;;;;;5071895;28;8771;-62
2022/01/20 12:13:48;;;;;;;;;127.75;125.75;9.90;56.10;;;;;;5076707;28;9414;-69
2022/01/20 12:16:19;;;;;;;;;205.75;187.25;10.20;55.50;;;;;;5071669;28;8787;-73
2022/01/20 12:18:52;;;;;;;;;211.25;192.00;9.40;57.20;;;;;;5060477;28;9441;-75
2022/01/20 12:21:19;;;;;;;;;196.00;184.00;9.00;59.70;;;;;;5060377;28;8778;-72
2022/01/20 12:23:47;;;;;;;;;161.75;147.25;9.60;57.80;;;;;;5060720;28;8759;-72
2022/01/20 12:26:13;;;;;;;;;191.25;168.75;9.40;57.90;;;;;;5060608;28;8798;-71
2022/01/20 12:28:39;;;;;;;;;188.75;175.00;9.40;58.20;;;;;;5060952;28;8795;-70
2022/01/20 12:31:08;;;;;;;;;197.00;177.00;8.80;60.40;;;;;;5071313;28;8774;-70
2022/01/20 12:33:41;;;;;;;;;182.50;172.75;9.00;60.00;;;;;;5072813;28;8857;-71
2022/01/20 12:36:16;;;;;;;;;174.25;158.25;9.30;58.90;;;;;;5080539;28;8776;-71
2022/01/20 12:38:44;;;;;;;;;144.25;130.00;9.10;59.70;;;;;;5076926;28;9479;-72
2022/01/20 12:41:19;;;;;;;;;156.00;139.50;8.60;60.10;;;;;;5065936;28;8807;-74
2022/01/20 12:43:47;;;;;;;;;148.25;137.00;8.90;59.40;;;;;;5065012;28;8880;-71
2022/01/20 12:46:14;;;;;;;;;185.75;165.00;9.20;58.30;;;;;;5060351;28;8779;-72
2022/01/20 12:49:01;;;;;;;;;162.75;148.75;9.40;57.70;;;;;;5071547;28;8773;-71
2022/01/20 12:51:36;;;;;;;;;179.00;165.00;9.70;56.70;;;;;;5060654;28;8877;-72
2022/01/20 12:54:11;;;;;;;;;147.50;139.50;9.60;57.00;;;;;;5060255;28;8918;-72
2022/01/20 12:56:49;;;;;;;;;174.50;151.50;9.50;56.90;;;;;;5067101;28;8803;-72
2022/01/20 12:59:22;;;;;;;;;183.00;166.00;9.50;57.40;;;;;;5063289;28;8825;-71
2022/01/20 13:01:49;;;;;;;;;165.75;151.75;9.30;58.70;;;;;;5060482;28;8790;-70
2022/01/20 13:04:17;;;;;;;;;164.50;149.25;8.90;59.30;;;;;;5060756;28;8872;-71
2022/01/20 13:06:51;;;;;;;;;151.25;138.75;8.50;60.20;;;;;;5070710;28;8797;-66
2022/01/20 13:09:20;;;;;;;;;143.25;128.25;8.40;60.70;;;;;;5071728;28;8818;-66
2022/01/20 13:12:06;;;;;;;;;147.25;134.00;8.00;62.30;;;;;;5060111;28;8795;-65
2022/01/20 13:14:44;;;;;;;;;144.75;136.00;8.20;62.60;;;;;;5060287;28;8886;-68
2022/01/20 13:17:22;;;;;;;;;141.75;128.50;9.50;59.30;;;;;;5059897;28;8821;-67
2022/01/20 13:19:49;;;;;;;;;157.50;142.25;10.40;55.20;;;;;;5060147;28;8778;-68
2022/01/20 13:22:40;;;;;;;;;147.75;135.50;10.80;53.30;;;;;;5056383;28;8762;-65
2022/01/20 13:25:17;;;;;;;;;140.00;134.25;10.70;53.10;;;;;;5074873;28;8803;-66
2022/01/20 13:28:11;;;;;;;;;130.50;116.75;10.70;53.30;;;;;;5076825;28;8857;-65
2022/01/20 13:30:47;;;;;;;;;126.75;112.50;10.80;53.80;;;;;;5074479;28;8764;-66
2022/01/20 13:33:17;;;;;;;;;108.25;99.00;10.60;54.50;;;;;;5076905;28;8812;-67
2022/01/20 13:35:47;;;;;;;;;102.00;95.50;10.60;54.20;;;;;;5076876;28;9536;-67
2022/01/20 13:38:13;;;;;;;;;101.00;91.75;10.60;54.90;;;;;;5076635;28;8807;-67